Travetal — 5BCT2 — position and weather

sailwx.info

Track history (hours):
 
Tides and Currents Weather Stations Pressure Air Temp Water Temp Dewpoint Dewpoint Depression Visibility Wind Speed Wind Dir Waves Ship Positions

Travetal

Last reported at 2017-Dec-17 14:47 UTC. Time now 2017-Dec-17 15:59 UTC.
Position N 50°54' E 001°09'.

Length 89 m; draft 5.5 m.

Type: Ship. MMSI: 210974000.

Date/timePositionNaut miles runAvg speedWind from/ knotsBaromVisibWave heightAir tempDewpointWater temp
2017-Dec-17 14:47N 50°54' E 001°09'2 8.9
2017-Dec-17 14:30N 50°56' E 001°12'4 8.4
2017-Dec-17 14:00N 50°59' E 001°17'4 7.8
2017-Dec-17 13:30N 51°01' E 001°22'4 7.2
2017-Dec-17 13:00N 51°03' E 001°26'3 6.7
2017-Dec-17 12:30N 51°06' E 001°31'3 6.1
2017-Dec-17 12:00N 51°08' E 001°34'3 6.1
2017-Dec-17 11:30N 51°10' E 001°38'3 6.7
2017-Dec-17 11:00N 51°12' E 001°42'4 7.3
2017-Dec-17 10:30N 51°15' E 001°46'4 8.6
2017-Dec-17 10:00N 51°18' E 001°49'5 9.6
2017-Dec-17 09:30N 51°23' E 001°53'510.6
2017-Dec-17 09:00N 51°27' E 001°57'611.2
2017-Dec-17 08:30N 51°32' E 002°02'511.0
2017-Dec-17 08:00N 51°36' E 002°08'92 8.2
2017-Dec-16 20:44N 52°31' E 004°08'3 8.0
2017-Dec-16 20:25N 52°31' E 004°12'3 7.6
2017-Dec-16 20:00N 52°31' E 004°18'4 7.3
2017-Dec-16 19:30N 52°29' E 004°23'4 7.7
2017-Dec-16 19:00N 52°28' E 004°29'4 7.7
2017-Dec-16 18:30N 52°28' E 004°35'1 1.4
2017-Dec-16 18:00N 52°28' E 004°37'3 6.2
2017-Dec-16 17:30N 52°27' E 004°41'4 7.3
2017-Dec-16 17:01N 52°26' E 004°47'2 3.4
2017-Dec-16 16:30N 52°24' E 004°49'0 0.0
2017-Dec-16 15:57N 52°24' E 004°49'0 0.0
2017-Dec-16 15:30N 52°24' E 004°49'0 0.0
2017-Dec-16 14:30N 52°24' E 004°49'0 0.0
2017-Dec-16 14:00N 52°24' E 004°49'0 0.0
2017-Dec-16 13:30N 52°24' E 004°49'0 0.0
2017-Dec-16 13:00N 52°24' E 004°49'0 0.0
2017-Dec-16 12:30N 52°24' E 004°49'0 0.0
2017-Dec-16 12:00N 52°24' E 004°49'0 0.0
2017-Dec-16 11:30N 52°24' E 004°49'0 0.0
2017-Dec-16 11:00N 52°24' E 004°49'0 0.0
2017-Dec-16 10:30N 52°24' E 004°49'0 0.0
2017-Dec-16 10:00N 52°24' E 004°49'0 0.0
2017-Dec-16 09:27N 52°24' E 004°49'0 0.0
2017-Dec-16 09:00N 52°24' E 004°49'0 0.0
2017-Dec-16 08:30N 52°24' E 004°49'0 0.0
2017-Dec-16 08:00N 52°24' E 004°49'0 0.0
2017-Dec-16 07:30N 52°24' E 004°49'0 0.0
2017-Dec-16 07:00N 52°24' E 004°49'0 0.0
2017-Dec-16 06:30N 52°24' E 004°49'0 0.0
2017-Dec-16 05:57N 52°24' E 004°49'0 0.0
2017-Dec-16 05:30N 52°24' E 004°49'0 0.0
2017-Dec-16 04:57N 52°24' E 004°49'0 0.0
2017-Dec-16 04:30N 52°24' E 004°49'0 0.0
2017-Dec-16 04:00N 52°24' E 004°49'0 0.0
2017-Dec-16 03:30N 52°24' E 004°49'0 0.0
2017-Dec-16 03:00N 52°24' E 004°49'0 0.0
2017-Dec-16 02:30N 52°24' E 004°49'0 0.0
2017-Dec-16 02:00N 52°24' E 004°49'0 0.0
2017-Dec-16 01:30N 52°24' E 004°49'0 0.0
2017-Dec-16 01:00N 52°24' E 004°49'0 0.0
2017-Dec-16 00:27N 52°24' E 004°49'0 0.1
2017-Dec-15 23:59N 52°24' E 004°49'0 0.0
2017-Dec-15 23:30N 52°24' E 004°49'0 0.0
2017-Dec-15 23:00N 52°24' E 004°49'0 0.0
2017-Dec-15 22:26N 52°24' E 004°49'0 0.0
2017-Dec-15 21:54N 52°24' E 004°49'0 0.0
2017-Dec-15 21:23N 52°24' E 004°49'0 0.0
2017-Dec-15 20:57N 52°24' E 004°49'0 0.0
2017-Dec-15 20:30N 52°24' E 004°49'0 0.0
2017-Dec-15 19:57N 52°24' E 004°49'0 0.0
2017-Dec-15 19:30N 52°24' E 004°49'0 1.0
2017-Dec-15 19:00N 52°25' E 004°49'0 0.3
2017-Dec-15 18:30N 52°25' E 004°49'0 0.0
2017-Dec-15 18:00N 52°25' E 004°49'0 0.0
2017-Dec-15 17:30N 52°25' E 004°49'0 0.0
2017-Dec-15 17:00N 52°25' E 004°49'0 0.0
2017-Dec-15 16:30N 52°25' E 004°49'0 0.0
2017-Dec-15 16:00N 52°25' E 004°49'0 0.0
2017-Dec-15 15:27N 52°25' E 004°49'0 0.2
2017-Dec-15 15:00N 52°25' E 004°49'0 1.0
2017-Dec-15 14:30N 52°25' E 004°50'2 4.1
2017-Dec-15 14:00N 52°24' E 004°52'0 0.0
2017-Dec-15 13:30N 52°24' E 004°52'0 0.0
2017-Dec-15 13:00N 52°24' E 004°52'0 0.0
2017-Dec-15 12:30N 52°24' E 004°52'0 0.0
2017-Dec-15 11:57N 52°24' E 004°52'0 0.0
2017-Dec-15 11:27N 52°24' E 004°52'0 0.0
2017-Dec-15 11:00N 52°24' E 004°52'0 0.0
2017-Dec-15 10:30N 52°24' E 004°52'0 0.0
2017-Dec-15 09:57N 52°24' E 004°52'0 0.0
2017-Dec-15 09:30N 52°24' E 004°52'0 0.0
2017-Dec-15 08:51N 52°24' E 004°52'0 0.0
2017-Dec-15 08:30N 52°24' E 004°52'0 0.0
2017-Dec-15 08:00N 52°24' E 004°52'0 0.0
2017-Dec-15 07:30N 52°24' E 004°52'0 0.0
2017-Dec-15 07:00N 52°24' E 004°52'0 0.0
2017-Dec-15 06:30N 52°24' E 004°52'0 0.0
2017-Dec-15 05:57N 52°24' E 004°52'0 0.0
2017-Dec-15 05:30N 52°24' E 004°52'0 0.0
2017-Dec-15 05:00N 52°24' E 004°52'0 0.1
2017-Dec-15 04:30N 52°24' E 004°52'0 0.0
2017-Dec-15 03:57N 52°24' E 004°52'0 0.0
2017-Dec-15 02:30N 52°24' E 004°52'0 0.3
2017-Dec-15 01:01N 52°24' E 004°52'5 9.5
2017-Dec-15 00:31N 52°26' E 004°45'74 6.6
2017-Dec-14 13:27N 51°28' E 003°31'4 8.7
2017-Dec-14 12:59N 51°26' E 003°37'612.2
2017-Dec-14 12:31N 51°23' E 003°44'4 8.6
2017-Dec-14 12:01N 51°20' E 003°49'0 0.8
2017-Dec-14 11:30N 51°19' E 003°49'4 7.7
2017-Dec-14 11:01N 51°15' E 003°50'4 8.2
2017-Dec-14 10:30N 51°11' E 003°48'3 5.1
2017-Dec-14 09:57N 51°09' E 003°48'0 0.0
2017-Dec-14 09:27N 51°09' E 003°48'0 0.0
2017-Dec-14 08:39N 51°09' E 003°48'0 0.0
2017-Dec-14 08:21N 51°09' E 003°48'0 0.0
2017-Dec-14 07:58N 51°09' E 003°48'0 0.0
2017-Dec-14 07:13N 51°09' E 003°48'0 0.0
2017-Dec-14 06:58N 51°09' E 003°48'0 0.0
2017-Dec-14 06:25N 51°09' E 003°48'0 0.0
2017-Dec-14 05:49N 51°09' E 003°48'0 0.0
2017-Dec-14 05:19N 51°09' E 003°48'0 0.0
2017-Dec-14 04:00N 51°09' E 003°48'0 0.0
2017-Dec-14 03:30N 51°09' E 003°48'0 0.0
2017-Dec-14 02:54N 51°09' E 003°48'0 0.0
2017-Dec-14 02:18N 51°09' E 003°48'0 0.0
2017-Dec-14 01:57N 51°09' E 003°48'0 0.0
2017-Dec-14 00:36N 51°09' E 003°48'0 0.1
2017-Dec-14 00:30N 51°09' E 003°48'0 0.0
2017-Dec-13 23:24N 51°09' E 003°48'0 0.0
2017-Dec-13 22:54N 51°09' E 003°48'0 0.0
2017-Dec-13 22:30N 51°09' E 003°48'0 0.0
2017-Dec-13 22:00N 51°09' E 003°48'0 0.0
2017-Dec-13 21:30N 51°09' E 003°48'0 0.0
2017-Dec-13 20:18N 51°09' E 003°48'0 0.0
2017-Dec-13 19:57N 51°09' E 003°48'0 0.0
2017-Dec-13 19:15N 51°09' E 003°48'0 0.0
2017-Dec-13 18:52N 51°09' E 003°48'0 0.0
2017-Dec-13 18:25N 51°09' E 003°48'0 0.0
2017-Dec-13 17:55N 51°09' E 003°48'0 0.0
2017-Dec-13 17:07N 51°09' E 003°48'0 0.0
2017-Dec-13 16:55N 51°09' E 003°48'0 0.0
2017-Dec-13 16:29N 51°09' E 003°48'0 0.0
2017-Dec-13 15:59N 51°09' E 003°48'0 0.0
2017-Dec-13 15:17N 51°09' E 003°48'0 0.0
2017-Dec-13 14:59N 51°09' E 003°48'0 0.0
2017-Dec-13 14:29N 51°09' E 003°48'0 0.0
2017-Dec-13 13:59N 51°09' E 003°48'0 0.0
2017-Dec-13 13:27N 51°09' E 003°48'0 0.0
2017-Dec-13 12:55N 51°09' E 003°48'0 0.2
2017-Dec-13 12:31N 51°09' E 003°48'2 4.9
2017-Dec-13 12:01N 51°07' E 003°45'1 1.8
2017-Dec-13 11:30N 51°06' E 003°44'0 0.0
2017-Dec-13 10:58N 51°06' E 003°44'0 0.0
2017-Dec-13 10:29N 51°06' E 003°44'0 0.0
2017-Dec-13 09:58N 51°06' E 003°44'0 0.0
2017-Dec-13 09:30N 51°06' E 003°44'0 0.0
2017-Dec-13 08:55N 51°06' E 003°44'0 0.0
2017-Dec-13 08:31N 51°06' E 003°44'0 0.0
2017-Dec-13 08:01N 51°06' E 003°44'0 0.0
2017-Dec-13 07:31N 51°06' E 003°44'0 0.0
2017-Dec-13 07:00N 51°06' E 003°44'0 0.0
2017-Dec-13 06:30N 51°06' E 003°44'0 0.0
2017-Dec-13 06:00N 51°06' E 003°44'0 0.0
2017-Dec-13 05:29N 51°06' E 003°44'0 0.0
2017-Dec-13 04:58N 51°06' E 003°44'0 0.0
2017-Dec-13 04:30N 51°06' E 003°44'0 0.0
2017-Dec-13 04:00N 51°06' E 003°44'0 0.0
2017-Dec-13 03:30N 51°06' E 003°44'0 0.0
2017-Dec-13 03:01N 51°06' E 003°44'0 0.0
2017-Dec-13 02:30N 51°06' E 003°44'0 0.0
2017-Dec-13 02:00N 51°06' E 003°44'0 0.0
2017-Dec-13 01:29N 51°06' E 003°44'0 0.0
2017-Dec-13 01:00N 51°06' E 003°44'0 0.0
2017-Dec-13 00:30N 51°06' E 003°44'0 0.0
2017-Dec-12 23:58N 51°06' E 003°44'0 0.0
2017-Dec-12 23:30N 51°06' E 003°44'0 0.0
2017-Dec-12 23:00N 51°06' E 003°44'0 0.0
2017-Dec-12 22:29N 51°06' E 003°44'0 0.0
2017-Dec-12 22:00N 51°06' E 003°44'0 0.0
2017-Dec-12 21:30N 51°06' E 003°44'0 0.0
2017-Dec-12 21:00N 51°06' E 003°44'0 0.0
2017-Dec-12 20:29N 51°06' E 003°44'0 0.0
2017-Dec-12 20:00N 51°06' E 003°44'0 0.0
2017-Dec-12 19:30N 51°06' E 003°44'0 0.0
2017-Dec-12 19:00N 51°06' E 003°44'0 0.0
2017-Dec-12 18:30N 51°06' E 003°44'0 0.0
2017-Dec-12 18:00N 51°06' E 003°44'0 0.0
2017-Dec-12 17:31N 51°06' E 003°44'0 0.0
2017-Dec-12 16:58N 51°06' E 003°44'0 0.0
2017-Dec-12 16:30N 51°06' E 003°44'0 0.0
2017-Dec-12 16:00N 51°06' E 003°44'0 0.0
2017-Dec-12 15:29N 51°06' E 003°44'0 0.0
2017-Dec-12 14:59N 51°06' E 003°44'0 0.0
2017-Dec-12 14:30N 51°06' E 003°44'0 0.0
2017-Dec-12 14:00N 51°06' E 003°44'0 0.0
2017-Dec-12 13:31N 51°06' E 003°44'0 0.0
2017-Dec-12 13:00N 51°06' E 003°44'0 0.0
2017-Dec-12 12:30N 51°06' E 003°44'0 0.0
2017-Dec-12 12:01N 51°06' E 003°44'0 0.0
2017-Dec-12 11:26N 51°06' E 003°44'0 0.0
2017-Dec-12 10:58N 51°06' E 003°44'0 0.0
2017-Dec-12 10:28N 51°06' E 003°44'0 0.0
2017-Dec-12 10:00N 51°06' E 003°44'0 0.0
2017-Dec-12 09:30N 51°06' E 003°44'0 0.0
2017-Dec-12 09:00N 51°06' E 003°44'0 0.0
2017-Dec-12 08:30N 51°06' E 003°44'0 0.0
2017-Dec-12 07:55N 51°06' E 003°44'0 0.0
2017-Dec-12 07:30N 51°06' E 003°44'0 0.0
2017-Dec-12 07:00N 51°06' E 003°44'0 0.0
2017-Dec-12 06:31N 51°06' E 003°44'0 0.0
2017-Dec-12 06:00N 51°06' E 003°44'0 0.0
2017-Dec-12 05:30N 51°06' E 003°44'0 0.0
2017-Dec-12 04:56N 51°06' E 003°44'0 0.0
2017-Dec-12 04:30N 51°06' E 003°44'0 0.0
2017-Dec-12 04:00N 51°06' E 003°44'0 0.0
2017-Dec-12 03:29N 51°06' E 003°44'0 0.0
2017-Dec-12 03:00N 51°06' E 003°44'0 0.0
2017-Dec-12 02:30N 51°06' E 003°44'0 0.0
2017-Dec-12 02:00N 51°06' E 003°44'0 0.0
2017-Dec-12 01:30N 51°06' E 003°44'0 0.0
2017-Dec-12 01:00N 51°06' E 003°44'0 0.0
2017-Dec-12 00:30N 51°06' E 003°44'0 0.0
2017-Dec-12 00:00N 51°06' E 003°44'0 0.0
2017-Dec-11 23:29N 51°06' E 003°44'0 0.0
2017-Dec-11 23:00N 51°06' E 003°44'0 0.0
2017-Dec-11 22:30N 51°06' E 003°44'0 0.0
2017-Dec-11 22:00N 51°06' E 003°44'0 0.0
2017-Dec-11 21:30N 51°06' E 003°44'0 0.0
2017-Dec-11 21:00N 51°06' E 003°44'0 0.0
2017-Dec-11 20:30N 51°06' E 003°44'0 0.0
2017-Dec-11 20:00N 51°06' E 003°44'0 0.0
2017-Dec-11 19:30N 51°06' E 003°44'0 0.0
2017-Dec-11 19:00N 51°06' E 003°44'0 0.0
2017-Dec-11 18:30N 51°06' E 003°44'0 0.0
2017-Dec-11 18:00N 51°06' E 003°44'0 0.0
2017-Dec-11 17:30N 51°06' E 003°44'0 0.0
2017-Dec-11 16:59N 51°06' E 003°44'0 0.0
2017-Dec-11 16:29N 51°06' E 003°44'0 0.0
2017-Dec-11 16:01N 51°06' E 003°44'0 0.0
2017-Dec-11 15:28N 51°06' E 003°44'0 0.0
2017-Dec-11 14:58N 51°06' E 003°44'0 0.0
2017-Dec-11 14:30N 51°06' E 003°44'0 0.0
2017-Dec-11 14:00N 51°06' E 003°44'0 0.0
2017-Dec-11 13:30N 51°06' E 003°44'0 0.0
2017-Dec-11 13:00N 51°06' E 003°44'0 0.0
2017-Dec-11 12:30N 51°06' E 003°44'0 0.0
2017-Dec-11 11:58N 51°06' E 003°44'0 0.0
2017-Dec-11 11:28N 51°06' E 003°44'0 0.0
2017-Dec-11 11:00N 51°06' E 003°44'0 0.0
2017-Dec-11 10:28N 51°06' E 003°44'0 0.0
2017-Dec-11 09:58N 51°06' E 003°44'0 0.0
2017-Dec-11 09:30N 51°06' E 003°44'0 0.0
2017-Dec-11 08:57N 51°06' E 003°44'0 0.0
2017-Dec-11 08:31N 51°06' E 003°44'0 0.0
2017-Dec-11 08:00N 51°06' E 003°44'0 0.0
2017-Dec-11 07:30N 51°06' E 003°44'0 0.0
2017-Dec-11 07:00N 51°06' E 003°44'0 0.0
2017-Dec-11 06:31N 51°06' E 003°44'0 0.0
2017-Dec-11 06:01N 51°06' E 003°44'0 0.0
2017-Dec-11 05:30N 51°06' E 003°44'0 0.0
2017-Dec-11 05:00N 51°06' E 003°44'0 0.0
2017-Dec-11 04:30N 51°06' E 003°44'0 0.0
2017-Dec-11 04:01N 51°06' E 003°44'0 0.0
2017-Dec-11 03:28N 51°06' E 003°44'0 0.0
2017-Dec-11 03:00N 51°06' E 003°44'0 0.0
2017-Dec-11 02:30N 51°06' E 003°44'0 0.0
2017-Dec-11 02:01N 51°06' E 003°44'0 0.0
2017-Dec-11 01:30N 51°06' E 003°44'0 0.0
2017-Dec-11 01:00N 51°06' E 003°44'0 0.0
2017-Dec-11 00:30N 51°06' E 003°44'0 0.0
2017-Dec-11 00:00N 51°06' E 003°44'0 0.0
2017-Dec-10 23:30N 51°06' E 003°44'0 0.0
2017-Dec-10 22:58N 51°06' E 003°44'0 0.0
2017-Dec-10 22:31N 51°06' E 003°44'1 1.7
2017-Dec-10 22:00N 51°07' E 003°45'4 7.2
2017-Dec-10 21:31N 51°10' E 003°48'4 7.1
2017-Dec-10 21:00N 51°14' E 003°48'3 6.8
2017-Dec-10 20:30N 51°17' E 003°50'3 6.0
2017-Dec-10 20:00N 51°20' E 003°49'0 0.2
2017-Dec-10 19:30N 51°20' E 003°49'2 3.9
2017-Dec-10 19:00N 51°21' E 003°47'510.1
2017-Dec-10 18:30N 51°25' E 003°41'5 9.0
2017-Dec-10 17:56N 51°27' E 003°33'4 8.8
2017-Dec-10 17:30N 51°29' E 003°29'4 6.6
2017-Dec-10 16:52N 51°33' E 003°25'11 7.6
2017-Dec-10 15:23N 51°43' E 003°16'130 5.0
2017-Dec-09 13:18N 53°34' E 005°07'2 6.1
2017-Dec-09 13:00N 53°35' E 005°10'3 6.2
2017-Dec-09 12:29N 53°36' E 005°15'3 5.9
2017-Dec-09 12:00N 53°37' E 005°19'3 5.6
2017-Dec-09 11:29N 53°38' E 005°24'110 6.4
2017-Dec-08 18:09N 53°59' E 008°27'610.2
2017-Dec-08 17:34N 53°58' E 008°37'111.5
2017-Dec-08 17:29N 53°57' E 008°39'510.9
2017-Dec-08 17:00N 53°53' E 008°43'5 9.2
2017-Dec-08 16:30N 53°50' E 008°50'4 8.0
2017-Dec-08 16:00N 53°51' E 008°57'3 6.8
2017-Dec-08 15:30N 53°52' E 009°02'4 7.4
2017-Dec-08 15:00N 53°53' E 009°08'0 1.0
2017-Dec-08 14:30N 53°54' E 009°09'0 0.0
2017-Dec-08 14:01N 53°54' E 009°09'0 0.0
2017-Dec-08 13:30N 53°54' E 009°09'1 2.7
2017-Dec-08 13:00N 53°55' E 009°10'4 7.9
2017-Dec-08 12:30N 53°58' E 009°15'4 7.9
2017-Dec-08 12:00N 54°01' E 009°18'1 2.6
2017-Dec-08 11:30N 54°02' E 009°18'2 3.3
2017-Dec-08 11:00N 54°04' E 009°19'4 8.3
2017-Dec-08 10:28N 54°08' E 009°20'4 8.2
2017-Dec-08 10:00N 54°10' E 009°26'4 8.7
2017-Dec-08 09:30N 54°12' E 009°33'4 7.8
2017-Dec-08 09:00N 54°15' E 009°37'4 7.6
2017-Dec-08 08:30N 54°18' E 009°41'4 8.2
2017-Dec-08 08:00N 54°21' E 009°46'  
Track history (hours):
 
Tides and Currents Weather Stations Pressure Air Temp Water Temp Dewpoint Dewpoint Depression Visibility Wind Speed Wind Dir Waves Ship Positions

Travetal

Last reported at 2017-Dec-17 14:47 UTC. Time now 2017-Dec-17 15:59 UTC.
Position N 50°54' E 001°09'.

Length 89 m; draft 5.5 m.

Type: Ship. MMSI: 210974000.

Date/timePositionNaut miles runAvg speedWind from/ knotsBaromVisibWave heightAir tempDewpointWater temp
2017-Dec-17 14:47N 50°54' E 001°09'2 8.9
2017-Dec-17 14:30N 50°56' E 001°12'4 8.4
2017-Dec-17 14:00N 50°59' E 001°17'4 7.8
2017-Dec-17 13:30N 51°01' E 001°22'4 7.2
2017-Dec-17 13:00N 51°03' E 001°26'3 6.7
2017-Dec-17 12:30N 51°06' E 001°31'3 6.1
2017-Dec-17 12:00N 51°08' E 001°34'3 6.1
2017-Dec-17 11:30N 51°10' E 001°38'3 6.7
2017-Dec-17 11:00N 51°12' E 001°42'4 7.3
2017-Dec-17 10:30N 51°15' E 001°46'4 8.6
2017-Dec-17 10:00N 51°18' E 001°49'5 9.6
2017-Dec-17 09:30N 51°23' E 001°53'510.6
2017-Dec-17 09:00N 51°27' E 001°57'611.2
2017-Dec-17 08:30N 51°32' E 002°02'511.0
2017-Dec-17 08:00N 51°36' E 002°08'92 8.2
2017-Dec-16 20:44N 52°31' E 004°08'3 8.0
2017-Dec-16 20:25N 52°31' E 004°12'3 7.6
2017-Dec-16 20:00N 52°31' E 004°18'4 7.3
2017-Dec-16 19:30N 52°29' E 004°23'4 7.7
2017-Dec-16 19:00N 52°28' E 004°29'4 7.7
2017-Dec-16 18:30N 52°28' E 004°35'1 1.4
2017-Dec-16 18:00N 52°28' E 004°37'3 6.2
2017-Dec-16 17:30N 52°27' E 004°41'4 7.3
2017-Dec-16 17:01N 52°26' E 004°47'2 3.4
2017-Dec-16 16:30N 52°24' E 004°49'0 0.0
2017-Dec-16 15:57N 52°24' E 004°49'0 0.0
2017-Dec-16 15:30N 52°24' E 004°49'0 0.0
2017-Dec-16 14:30N 52°24' E 004°49'0 0.0
2017-Dec-16 14:00N 52°24' E 004°49'0 0.0
2017-Dec-16 13:30N 52°24' E 004°49'0 0.0
2017-Dec-16 13:00N 52°24' E 004°49'0 0.0
2017-Dec-16 12:30N 52°24' E 004°49'0 0.0
2017-Dec-16 12:00N 52°24' E 004°49'0 0.0
2017-Dec-16 11:30N 52°24' E 004°49'0 0.0
2017-Dec-16 11:00N 52°24' E 004°49'0 0.0
2017-Dec-16 10:30N 52°24' E 004°49'0 0.0
2017-Dec-16 10:00N 52°24' E 004°49'0 0.0
2017-Dec-16 09:27N 52°24' E 004°49'0 0.0
2017-Dec-16 09:00N 52°24' E 004°49'0 0.0
2017-Dec-16 08:30N 52°24' E 004°49'0 0.0
2017-Dec-16 08:00N 52°24' E 004°49'0 0.0
2017-Dec-16 07:30N 52°24' E 004°49'0 0.0
2017-Dec-16 07:00N 52°24' E 004°49'0 0.0
2017-Dec-16 06:30N 52°24' E 004°49'0 0.0
2017-Dec-16 05:57N 52°24' E 004°49'0 0.0
2017-Dec-16 05:30N 52°24' E 004°49'0 0.0
2017-Dec-16 04:57N 52°24' E 004°49'0 0.0
2017-Dec-16 04:30N 52°24' E 004°49'0 0.0
2017-Dec-16 04:00N 52°24' E 004°49'0 0.0
2017-Dec-16 03:30N 52°24' E 004°49'0 0.0
2017-Dec-16 03:00N 52°24' E 004°49'0 0.0
2017-Dec-16 02:30N 52°24' E 004°49'0 0.0
2017-Dec-16 02:00N 52°24' E 004°49'0 0.0
2017-Dec-16 01:30N 52°24' E 004°49'0 0.0
2017-Dec-16 01:00N 52°24' E 004°49'0 0.0
2017-Dec-16 00:27N 52°24' E 004°49'0 0.1
2017-Dec-15 23:59N 52°24' E 004°49'0 0.0
2017-Dec-15 23:30N 52°24' E 004°49'0 0.0
2017-Dec-15 23:00N 52°24' E 004°49'0 0.0
2017-Dec-15 22:26N 52°24' E 004°49'0 0.0
2017-Dec-15 21:54N 52°24' E 004°49'0 0.0
2017-Dec-15 21:23N 52°24' E 004°49'0 0.0
2017-Dec-15 20:57N 52°24' E 004°49'0 0.0
2017-Dec-15 20:30N 52°24' E 004°49'0 0.0
2017-Dec-15 19:57N 52°24' E 004°49'0 0.0
2017-Dec-15 19:30N 52°24' E 004°49'0 1.0
2017-Dec-15 19:00N 52°25' E 004°49'0 0.3
2017-Dec-15 18:30N 52°25' E 004°49'0 0.0
2017-Dec-15 18:00N 52°25' E 004°49'0 0.0
2017-Dec-15 17:30N 52°25' E 004°49'0 0.0
2017-Dec-15 17:00N 52°25' E 004°49'0 0.0
2017-Dec-15 16:30N 52°25' E 004°49'0 0.0
2017-Dec-15 16:00N 52°25' E 004°49'0 0.0
2017-Dec-15 15:27N 52°25' E 004°49'0 0.2
2017-Dec-15 15:00N 52°25' E 004°49'0 1.0
2017-Dec-15 14:30N 52°25' E 004°50'2 4.1
2017-Dec-15 14:00N 52°24' E 004°52'0 0.0
2017-Dec-15 13:30N 52°24' E 004°52'0 0.0
2017-Dec-15 13:00N 52°24' E 004°52'0 0.0
2017-Dec-15 12:30N 52°24' E 004°52'0 0.0
2017-Dec-15 11:57N 52°24' E 004°52'0 0.0
2017-Dec-15 11:27N 52°24' E 004°52'0 0.0
2017-Dec-15 11:00N 52°24' E 004°52'0 0.0
2017-Dec-15 10:30N 52°24' E 004°52'0 0.0
2017-Dec-15 09:57N 52°24' E 004°52'0 0.0
2017-Dec-15 09:30N 52°24' E 004°52'0 0.0
2017-Dec-15 08:51N 52°24' E 004°52'0 0.0
2017-Dec-15 08:30N 52°24' E 004°52'0 0.0
2017-Dec-15 08:00N 52°24' E 004°52'0 0.0
2017-Dec-15 07:30N 52°24' E 004°52'0 0.0
2017-Dec-15 07:00N 52°24' E 004°52'0 0.0
2017-Dec-15 06:30N 52°24' E 004°52'0 0.0
2017-Dec-15 05:57N 52°24' E 004°52'0 0.0
2017-Dec-15 05:30N 52°24' E 004°52'0 0.0
2017-Dec-15 05:00N 52°24' E 004°52'0 0.1
2017-Dec-15 04:30N 52°24' E 004°52'0 0.0
2017-Dec-15 03:57N 52°24' E 004°52'0 0.0
2017-Dec-15 02:30N 52°24' E 004°52'0 0.3
2017-Dec-15 01:01N 52°24' E 004°52'5 9.5
2017-Dec-15 00:31N 52°26' E 004°45'74 6.6
2017-Dec-14 13:27N 51°28' E 003°31'4 8.7
2017-Dec-14 12:59N 51°26' E 003°37'612.2
2017-Dec-14 12:31N 51°23' E 003°44'4 8.6
2017-Dec-14 12:01N 51°20' E 003°49'0 0.8
2017-Dec-14 11:30N 51°19' E 003°49'4 7.7
2017-Dec-14 11:01N 51°15' E 003°50'4 8.2
2017-Dec-14 10:30N 51°11' E 003°48'3 5.1
2017-Dec-14 09:57N 51°09' E 003°48'0 0.0
2017-Dec-14 09:27N 51°09' E 003°48'0 0.0
2017-Dec-14 08:39N 51°09' E 003°48'0 0.0
2017-Dec-14 08:21N 51°09' E 003°48'0 0.0
2017-Dec-14 07:58N 51°09' E 003°48'0 0.0
2017-Dec-14 07:13N 51°09' E 003°48'0 0.0
2017-Dec-14 06:58N 51°09' E 003°48'0 0.0
2017-Dec-14 06:25N 51°09' E 003°48'0 0.0
2017-Dec-14 05:49N 51°09' E 003°48'0 0.0
2017-Dec-14 05:19N 51°09' E 003°48'0 0.0
2017-Dec-14 04:00N 51°09' E 003°48'0 0.0
2017-Dec-14 03:30N 51°09' E 003°48'0 0.0
2017-Dec-14 02:54N 51°09' E 003°48'0 0.0
2017-Dec-14 02:18N 51°09' E 003°48'0 0.0
2017-Dec-14 01:57N 51°09' E 003°48'0 0.0
2017-Dec-14 00:36N 51°09' E 003°48'0 0.1
2017-Dec-14 00:30N 51°09' E 003°48'0 0.0
2017-Dec-13 23:24N 51°09' E 003°48'0 0.0
2017-Dec-13 22:54N 51°09' E 003°48'0 0.0
2017-Dec-13 22:30N 51°09' E 003°48'0 0.0
2017-Dec-13 22:00N 51°09' E 003°48'0 0.0
2017-Dec-13 21:30N 51°09' E 003°48'0 0.0
2017-Dec-13 20:18N 51°09' E 003°48'0 0.0
2017-Dec-13 19:57N 51°09' E 003°48'0 0.0
2017-Dec-13 19:15N 51°09' E 003°48'0 0.0
2017-Dec-13 18:52N 51°09' E 003°48'0 0.0
2017-Dec-13 18:25N 51°09' E 003°48'0 0.0
2017-Dec-13 17:55N 51°09' E 003°48'0 0.0
2017-Dec-13 17:07N 51°09' E 003°48'0 0.0
2017-Dec-13 16:55N 51°09' E 003°48'0 0.0
2017-Dec-13 16:29N 51°09' E 003°48'0 0.0
2017-Dec-13 15:59N 51°09' E 003°48'0 0.0
2017-Dec-13 15:17N 51°09' E 003°48'0 0.0
2017-Dec-13 14:59N 51°09' E 003°48'0 0.0
2017-Dec-13 14:29N 51°09' E 003°48'0 0.0
2017-Dec-13 13:59N 51°09' E 003°48'0 0.0
2017-Dec-13 13:27N 51°09' E 003°48'0 0.0
2017-Dec-13 12:55N 51°09' E 003°48'0 0.2
2017-Dec-13 12:31N 51°09' E 003°48'2 4.9
2017-Dec-13 12:01N 51°07' E 003°45'1 1.8
2017-Dec-13 11:30N 51°06' E 003°44'0 0.0
2017-Dec-13 10:58N 51°06' E 003°44'0 0.0
2017-Dec-13 10:29N 51°06' E 003°44'0 0.0
2017-Dec-13 09:58N 51°06' E 003°44'0 0.0
2017-Dec-13 09:30N 51°06' E 003°44'0 0.0
2017-Dec-13 08:55N 51°06' E 003°44'0 0.0
2017-Dec-13 08:31N 51°06' E 003°44'0 0.0
2017-Dec-13 08:01N 51°06' E 003°44'0 0.0
2017-Dec-13 07:31N 51°06' E 003°44'0 0.0
2017-Dec-13 07:00N 51°06' E 003°44'0 0.0
2017-Dec-13 06:30N 51°06' E 003°44'0 0.0
2017-Dec-13 06:00N 51°06' E 003°44'0 0.0
2017-Dec-13 05:29N 51°06' E 003°44'0 0.0
2017-Dec-13 04:58N 51°06' E 003°44'0 0.0
2017-Dec-13 04:30N 51°06' E 003°44'0 0.0
2017-Dec-13 04:00N 51°06' E 003°44'0 0.0
2017-Dec-13 03:30N 51°06' E 003°44'0 0.0
2017-Dec-13 03:01N 51°06' E 003°44'0 0.0
2017-Dec-13 02:30N 51°06' E 003°44'0 0.0
2017-Dec-13 02:00N 51°06' E 003°44'0 0.0
2017-Dec-13 01:29N 51°06' E 003°44'0 0.0
2017-Dec-13 01:00N 51°06' E 003°44'0 0.0
2017-Dec-13 00:30N 51°06' E 003°44'0 0.0
2017-Dec-12 23:58N 51°06' E 003°44'0 0.0
2017-Dec-12 23:30N 51°06' E 003°44'0 0.0
2017-Dec-12 23:00N 51°06' E 003°44'0 0.0
2017-Dec-12 22:29N 51°06' E 003°44'0 0.0
2017-Dec-12 22:00N 51°06' E 003°44'0 0.0
2017-Dec-12 21:30N 51°06' E 003°44'0 0.0
2017-Dec-12 21:00N 51°06' E 003°44'0 0.0
2017-Dec-12 20:29N 51°06' E 003°44'0 0.0
2017-Dec-12 20:00N 51°06' E 003°44'0 0.0
2017-Dec-12 19:30N 51°06' E 003°44'0 0.0
2017-Dec-12 19:00N 51°06' E 003°44'0 0.0
2017-Dec-12 18:30N 51°06' E 003°44'0 0.0
2017-Dec-12 18:00N 51°06' E 003°44'0 0.0
2017-Dec-12 17:31N 51°06' E 003°44'0 0.0
2017-Dec-12 16:58N 51°06' E 003°44'0 0.0
2017-Dec-12 16:30N 51°06' E 003°44'0 0.0
2017-Dec-12 16:00N 51°06' E 003°44'0 0.0
2017-Dec-12 15:29N 51°06' E 003°44'0 0.0
2017-Dec-12 14:59N 51°06' E 003°44'0 0.0
2017-Dec-12 14:30N 51°06' E 003°44'0 0.0
2017-Dec-12 14:00N 51°06' E 003°44'0 0.0
2017-Dec-12 13:31N 51°06' E 003°44'0 0.0
2017-Dec-12 13:00N 51°06' E 003°44'0 0.0
2017-Dec-12 12:30N 51°06' E 003°44'0 0.0
2017-Dec-12 12:01N 51°06' E 003°44'0 0.0
2017-Dec-12 11:26N 51°06' E 003°44'0 0.0
2017-Dec-12 10:58N 51°06' E 003°44'0 0.0
2017-Dec-12 10:28N 51°06' E 003°44'0 0.0
2017-Dec-12 10:00N 51°06' E 003°44'0 0.0
2017-Dec-12 09:30N 51°06' E 003°44'0 0.0
2017-Dec-12 09:00N 51°06' E 003°44'0 0.0
2017-Dec-12 08:30N 51°06' E 003°44'0 0.0
2017-Dec-12 07:55N 51°06' E 003°44'0 0.0
2017-Dec-12 07:30N 51°06' E 003°44'0 0.0
2017-Dec-12 07:00N 51°06' E 003°44'0 0.0
2017-Dec-12 06:31N 51°06' E 003°44'0 0.0
2017-Dec-12 06:00N 51°06' E 003°44'0 0.0
2017-Dec-12 05:30N 51°06' E 003°44'0 0.0
2017-Dec-12 04:56N 51°06' E 003°44'0 0.0
2017-Dec-12 04:30N 51°06' E 003°44'0 0.0
2017-Dec-12 04:00N 51°06' E 003°44'0 0.0
2017-Dec-12 03:29N 51°06' E 003°44'0 0.0
2017-Dec-12 03:00N 51°06' E 003°44'0 0.0
2017-Dec-12 02:30N 51°06' E 003°44'0 0.0
2017-Dec-12 02:00N 51°06' E 003°44'0 0.0
2017-Dec-12 01:30N 51°06' E 003°44'0 0.0
2017-Dec-12 01:00N 51°06' E 003°44'0 0.0
2017-Dec-12 00:30N 51°06' E 003°44'0 0.0
2017-Dec-12 00:00N 51°06' E 003°44'0 0.0
2017-Dec-11 23:29N 51°06' E 003°44'0 0.0
2017-Dec-11 23:00N 51°06' E 003°44'0 0.0
2017-Dec-11 22:30N 51°06' E 003°44'0 0.0
2017-Dec-11 22:00N 51°06' E 003°44'0 0.0
2017-Dec-11 21:30N 51°06' E 003°44'0 0.0
2017-Dec-11 21:00N 51°06' E 003°44'0 0.0
2017-Dec-11 20:30N 51°06' E 003°44'0 0.0
2017-Dec-11 20:00N 51°06' E 003°44'0 0.0
2017-Dec-11 19:30N 51°06' E 003°44'0 0.0
2017-Dec-11 19:00N 51°06' E 003°44'0 0.0
2017-Dec-11 18:30N 51°06' E 003°44'0 0.0
2017-Dec-11 18:00N 51°06' E 003°44'0 0.0
2017-Dec-11 17:30N 51°06' E 003°44'0 0.0
2017-Dec-11 16:59N 51°06' E 003°44'0 0.0
2017-Dec-11 16:29N 51°06' E 003°44'0 0.0
2017-Dec-11 16:01N 51°06' E 003°44'0 0.0
2017-Dec-11 15:28N 51°06' E 003°44'0 0.0
2017-Dec-11 14:58N 51°06' E 003°44'0 0.0
2017-Dec-11 14:30N 51°06' E 003°44'0 0.0
2017-Dec-11 14:00N 51°06' E 003°44'0 0.0
2017-Dec-11 13:30N 51°06' E 003°44'0 0.0
2017-Dec-11 13:00N 51°06' E 003°44'0 0.0
2017-Dec-11 12:30N 51°06' E 003°44'0 0.0
2017-Dec-11 11:58N 51°06' E 003°44'0 0.0
2017-Dec-11 11:28N 51°06' E 003°44'0 0.0
2017-Dec-11 11:00N 51°06' E 003°44'0 0.0
2017-Dec-11 10:28N 51°06' E 003°44'0 0.0
2017-Dec-11 09:58N 51°06' E 003°44'0 0.0
2017-Dec-11 09:30N 51°06' E 003°44'0 0.0
2017-Dec-11 08:57N 51°06' E 003°44'0 0.0
2017-Dec-11 08:31N 51°06' E 003°44'0 0.0
2017-Dec-11 08:00N 51°06' E 003°44'0 0.0
2017-Dec-11 07:30N 51°06' E 003°44'0 0.0
2017-Dec-11 07:00N 51°06' E 003°44'0 0.0
2017-Dec-11 06:31N 51°06' E 003°44'0 0.0
2017-Dec-11 06:01N 51°06' E 003°44'0 0.0
2017-Dec-11 05:30N 51°06' E 003°44'0 0.0
2017-Dec-11 05:00N 51°06' E 003°44'0 0.0
2017-Dec-11 04:30N 51°06' E 003°44'0 0.0
2017-Dec-11 04:01N 51°06' E 003°44'0 0.0
2017-Dec-11 03:28N 51°06' E 003°44'0 0.0
2017-Dec-11 03:00N 51°06' E 003°44'0 0.0
2017-Dec-11 02:30N 51°06' E 003°44'0 0.0
2017-Dec-11 02:01N 51°06' E 003°44'0 0.0
2017-Dec-11 01:30N 51°06' E 003°44'0 0.0
2017-Dec-11 01:00N 51°06' E 003°44'0 0.0
2017-Dec-11 00:30N 51°06' E 003°44'0 0.0
2017-Dec-11 00:00N 51°06' E 003°44'0 0.0
2017-Dec-10 23:30N 51°06' E 003°44'0 0.0
2017-Dec-10 22:58N 51°06' E 003°44'0 0.0
2017-Dec-10 22:31N 51°06' E 003°44'1 1.7
2017-Dec-10 22:00N 51°07' E 003°45'4 7.2
2017-Dec-10 21:31N 51°10' E 003°48'4 7.1
2017-Dec-10 21:00N 51°14' E 003°48'3 6.8
2017-Dec-10 20:30N 51°17' E 003°50'3 6.0
2017-Dec-10 20:00N 51°20' E 003°49'0 0.2
2017-Dec-10 19:30N 51°20' E 003°49'2 3.9
2017-Dec-10 19:00N 51°21' E 003°47'510.1
2017-Dec-10 18:30N 51°25' E 003°41'5 9.0
2017-Dec-10 17:56N 51°27' E 003°33'4 8.8
2017-Dec-10 17:30N 51°29' E 003°29'4 6.6
2017-Dec-10 16:52N 51°33' E 003°25'11 7.6
2017-Dec-10 15:23N 51°43' E 003°16'130 5.0
2017-Dec-09 13:18N 53°34' E 005°07'2 6.1
2017-Dec-09 13:00N 53°35' E 005°10'3 6.2
2017-Dec-09 12:29N 53°36' E 005°15'3 5.9
2017-Dec-09 12:00N 53°37' E 005°19'3 5.6
2017-Dec-09 11:29N 53°38' E 005°24'110 6.4
2017-Dec-08 18:09N 53°59' E 008°27'610.2
2017-Dec-08 17:34N 53°58' E 008°37'111.5
2017-Dec-08 17:29N 53°57' E 008°39'510.9
2017-Dec-08 17:00N 53°53' E 008°43'5 9.2
2017-Dec-08 16:30N 53°50' E 008°50'4 8.0
2017-Dec-08 16:00N 53°51' E 008°57'3 6.8
2017-Dec-08 15:30N 53°52' E 009°02'4 7.4
2017-Dec-08 15:00N 53°53' E 009°08'0 1.0
2017-Dec-08 14:30N 53°54' E 009°09'0 0.0
2017-Dec-08 14:01N 53°54' E 009°09'0 0.0
2017-Dec-08 13:30N 53°54' E 009°09'1 2.7
2017-Dec-08 13:00N 53°55' E 009°10'4 7.9
2017-Dec-08 12:30N 53°58' E 009°15'4 7.9
2017-Dec-08 12:00N 54°01' E 009°18'1 2.6
2017-Dec-08 11:30N 54°02' E 009°18'2 3.3
2017-Dec-08 11:00N 54°04' E 009°19'4 8.3
2017-Dec-08 10:28N 54°08' E 009°20'4 8.2
2017-Dec-08 10:00N 54°10' E 009°26'4 8.7
2017-Dec-08 09:30N 54°12' E 009°33'4 7.8
2017-Dec-08 09:00N 54°15' E 009°37'4 7.6
2017-Dec-08 08:30N 54°18' E 009°41'4 8.2
2017-Dec-08 08:00N 54°21' E 009°46'  

Dump ship's entire track history